Anchorage, AK

9:49 AM AKST on February 10, 2016 (GMT -0900)
Merrill | | Change Station
CLOSE
Current Station
Airport
Location: Anchorage Merrill,
Elevation: 135 ft
Nearby Weather Stations

Elev 135 ft 61.22 °N, 149.85 °W | Updated 56 minutes ago

Overcast
Overcast
25 °F
Feels Like 21 °F
N
4
Wind Variable Wind from East

Today
High -- | Low -- °F
--% Chance of Precip.
Yesterday
High -- | Low -- °F
Precip. -- in
Pressure 29.57 in
Visibility 10.0 miles
Clouds Overcast 8500 ft
Windchill 21 °F
Dew Point 16 °F
Humidity 69%
Rainfall 0.00 in
Snow Depth Not available.
8:56 AM 5:31 PM
Waxing Crescent, 6% visible
METAR PAMR 101753Z 10003KT 10SM OVC085 M04/M09 A2956 RMK AO2 SLP012 T10391089 11039 21094 55007
Pressure 29.57 in
Visibility 10.0 miles
Clouds Overcast 8500 ft
Windchill 21 °F
Dew Point 16 °F
Humidity 69%
Rainfall 0.00 in
Snow Depth Not available.
8:56 AM 5:31 PM
Waxing Crescent, 6% visible
METAR PAMR 101753Z 10003KT 10SM OVC085 M04/M09 A2956 RMK AO2 SLP012 T10391089 11039 21094 55007

10-Day Weather Forecast

Almanac

Astronomy

Feb. 10, 2016 Rise Set
Actual Time
Civil Twilight
Nautical Twilight
Astronomical Twilight
Moon
Length of Visible Light
Length of Day
Tomorrow will be .
, % of the Moon is Illuminated

Today's Extremes

State Highs State Lows

Community

WunderPhotos

Upload Photos

1,891,915 photos uploaded!

WunderBlog® & News

Nearby

Air Quality

  Air Quality AQ Index Pollutant
Not available.

Snow Depth

Station Depth Elevation

Earthquake Activity

City Distance Mag. Time & Date
Minimum magnitude displayed is 2.5.

Coastal Water Temperatures

Place Temperature

Stations

Nearby Weather Stations

Station Location Temp. Windchill Dew Point Humidity Wind Precip. Elev Updated Type
                   

Watches & Warnings

There are currently no watches in effect.